• Join FlightAware (Why Join?)
  • Login
  • US Flag 
02:36AM EDT


 

Airport Tracker/Info


-or-


 

Live Flight TrackerFlight Track Log ✈ XOJ552 ✈ 24-Aug-2013 ✈ KLAS - CYVR

Flight Track Log - Related Links

Times and Time Zones

All times are in EDT time to prevent confusion due to time zone crossing. See the XOJ552 flight status page for this flight to view local times or setup timezone preferences in your user account.

Time Position Orientation Groundspeed Altitude Reporting Facility
EDT Latitude Longitude Course Direction KTS MPH feet Rate Location/Type
06:29PM 36.0756 -115.1258 84° East 152 175 3,200  Level Los Angeles Center
06:29PM 36.0792 -115.0833 84° East 196 226 4,600 3,000 Climbing Los Angeles Center
06:30PM 36.0781 -115.0186 91° East 242 278 7,200 3,180 Climbing Los Angeles Center
06:31PM 36.0542 -114.9386 110° East 269 310 10,300 2,940 Climbing Los Angeles Center
06:32PM 35.9842 -114.9753 203° Southwest 305 351 13,200 2,820 Climbing Los Angeles Center
06:33PM 35.9717 -115.0856 262° West 333 383 16,100 2,220 Climbing Los Angeles Center
06:35PM 35.9600 -115.2269 264° West 347 399 19,000 1,140 Climbing Los Angeles Center
06:36PM 35.9467 -115.3872 264° West 381 438 19,100 1,020 Climbing Los Angeles Center
06:37PM 35.9350 -115.5247 264° West 396 456 21,200 1,860 Climbing Los Angeles Center
06:38PM 35.9208 -115.6858 264° West 409 471 23,000 1,260 Climbing Los Angeles Center
06:39PM 35.9775 -115.8183 298° West 434 499 23,900 1,440 Climbing Los Angeles Center
06:40PM 36.0967 -115.8317 355° North 462 532 26,000 2,640 Climbing Los Angeles Center
06:41PM 36.1397 -115.7028 67° East 435 501 29,400 3,060 Climbing Los Angeles Center
06:42PM 36.0647 -115.6425 147° Southeast 361 415 32,400 2,520 Climbing Los Angeles Center
06:43PM 36.0050 -115.6819 208° Southwest 324 373 34,600 2,100 Climbing Los Angeles Center
06:44PM 35.9861 -115.8106 260° West 329 379 36,800 1,500 Climbing Los Angeles Center
06:45PM 36.0361 -115.9389 296° West 370 426 37,800 720 Climbing Los Angeles Center
06:46PM 36.1086 -116.0464 310° West 403 464 38,300 780 Climbing Los Angeles Center
06:47PM 36.1831 -116.1606 309° West 420 483 39,400 780 Climbing Los Angeles Center
06:48PM 36.2661 -116.2828 310° West 430 495 39,900 480 Climbing Los Angeles Center
06:49PM 36.3436 -116.4011 309° West 438 504 40,500 780 Climbing Los Angeles Center
06:50PM 36.4203 -116.5222 308° West 446 513 41,600 780 Climbing Los Angeles Center
06:51PM 36.4989 -116.6408 310° West 447 514 42,200 600 Climbing Los Angeles Center
06:52PM 36.5983 -116.7722 313° West 468 539 42,900 360 Climbing Los Angeles Center
06:53PM 36.7125 -116.8578 329° Northwest 477 549 43,000  Climbing Los Angeles Center
06:54PM 36.8278 -116.9456 329° Northwest 483 556 43,000  Level Los Angeles Center
06:55PM 36.9194 -117.0161 328° Northwest 483 556 43,000  Level Los Angeles Center
06:56PM 37.0583 -117.1217 329° Northwest 485 558 43,000  Level Los Angeles Center
06:57PM 37.1753 -117.2064 330° Northwest 485 558 43,000  Level Los Angeles Center
06:58PM 37.3078 -117.2603 342° North 499 574 43,000  Level Los Angeles Center
06:59PM 37.4667 -117.3275 341° North 498 573 43,000  Level Los Angeles Center
07:00PM 37.5978 -117.3828 342° North 496 571 43,000  Level Los Angeles Center
07:01PM 37.7281 -117.4397 341° North 493 567 43,000  Level Los Angeles Center
07:02PM 37.8608 -117.4947 342° North 495 570 43,000  Level Los Angeles Center
07:03PM 37.9914 -117.5517 341° North 492 566 43,000  Level Los Angeles Center
07:04PM 38.1222 -117.6078 341° North 489 563 43,000  Level Los Angeles Center
07:05PM 38.2519 -117.6628 342° North 487 560 43,000  Level Los Angeles Center
07:07PM 38.3828 -117.7194 341° North 490 564 43,000  Level Los Angeles Center
07:08PM 38.5389 -117.7892 341° North 495 570 43,000  Level Salt Lake Center
07:09PM 38.6700 -117.8458 341° North 496 571 43,000  Level Salt Lake Center
07:10PM 38.8028 -117.9042 341° North 501 577 43,000  Level Salt Lake Center
07:11PM 38.9342 -117.9622 341° North 501 577 43,000  Level Salt Lake Center
07:12PM 39.0936 -118.0308 342° North 501 577 43,000  Level Oakland Center
07:13PM 39.2258 -118.0906 341° North 504 580 43,000  Level Oakland Center
07:14PM 39.3564 -118.1489 341° North 502 578 43,000  Level Oakland Center
07:15PM 39.4878 -118.2075 341° North 504 580 43,000  Level Oakland Center
07:16PM 39.6169 -118.2658 341° North 499 574 43,000  Level Oakland Center
07:17PM 39.7728 -118.3361 341° North 498 573 43,000  Level Oakland Center
07:18PM 39.9025 -118.3961 340° North 499 574 43,000  Level Oakland Center
07:19PM 40.0325 -118.4558 341° North 498 573 43,000  Level Oakland Center
07:20PM 40.1622 -118.5156 341° North 496 571 43,000  Level Oakland Center
07:21PM 40.2917 -118.5756 341° North 496 571 43,000  Level Oakland Center
07:22PM 40.4206 -118.6358 340° North 494 568 43,000  Level Oakland Center
07:23PM 40.5500 -118.6947 341° North 493 567 43,000  Level Oakland Center
07:24PM 40.6867 -118.7603 340° North 491 565 43,000  Level Salt Lake Center
07:25PM 40.8108 -118.8189 340° North 493 567 43,000  Level Salt Lake Center
07:26PM 40.9569 -118.8853 341° North 497 572 43,000  Level Oakland Center
07:27PM 41.0808 -118.9444 340° North 496 571 43,000  Level Oakland Center
07:28PM 41.2069 -119.0036 341° North 499 574 43,000  Level Salt Lake Center
07:29PM 41.3517 -119.0731 340° North 497 572 43,000  Level Salt Lake Center
07:30PM 41.4767 -119.1311 341° North 496 571 43,000  Level Salt Lake Center
07:31PM 41.6000 -119.1917 340° North 494 568 43,000  Level Salt Lake Center
07:32PM 41.7425 -119.2619 340° North 489 563 43,000  Level Salt Lake Center
07:33PM 41.8656 -119.3200 341° North 488 562 43,000  Level Salt Lake Center
07:34PM 42.0078 -119.3900 340° North 487 560 43,000  Level Salt Lake Center
07:35PM 42.1317 -119.4483 341° North 491 565 43,000  Level Salt Lake Center
07:36PM 42.2528 -119.5100 339° North 488 562 43,000  Level Salt Lake Center
07:37PM 42.3872 -119.5756 340° North 489 563 43,000  Level Salt Lake Center
07:38PM 42.5142 -119.6392 340° North 488 562 43,000  Level Salt Lake Center
07:39PM 42.6425 -119.7019 340° North 490 564 43,000  Level Salt Lake Center
07:40PM 42.7694 -119.7653 340° North 488 562 43,000  Level Salt Lake Center
07:41PM 42.9247 -119.8408 340° North 492 566 43,000  Level Salt Lake Center
07:43PM 43.0425 -119.9042 339° North 495 570 43,000  Level Seattle Center
07:44PM 43.1706 -119.9672 340° North 491 565 43,000  Level Seattle Center
07:45PM 43.2981 -120.0314 340° North 489 563 43,000  Level Seattle Center
07:46PM 43.4275 -120.0972 340° North 495 570 43,000  Level Seattle Center
07:47PM 43.5697 -120.1686 340° North 496 571 43,000  Level Seattle Center
07:48PM 43.6936 -120.2342 339° North 492 566 43,000  Level Seattle Center
07:49PM 43.8222 -120.3008 339° North 493 567 43,000  Level Seattle Center
07:50PM 43.9519 -120.3681 340° North 499 574 43,000  Level Seattle Center
07:51PM 44.0789 -120.4333 340° North 490 564 43,000  Level Seattle Center
07:52PM 44.2072 -120.5017 339° North 490 564 43,000  Level Seattle Center
07:53PM 44.3350 -120.5678 340° North 490 564 43,000  Level Seattle Center
07:54PM 44.4894 -120.6494 339° North 498 573 43,000  Level Seattle Center
07:55PM 44.6153 -120.7178 339° North 491 565 43,000  Level Seattle Center
07:56PM 44.7475 -120.7892 339° North 491 565 43,000  Level Seattle Center
07:57PM 44.8758 -120.8581 339° North 492 566 43,000  Level Seattle Center
07:58PM 45.0050 -120.9275 339° North 495 570 43,000  Level Seattle Center
07:59PM 45.1336 -120.9975 339° North 495 570 43,000  Level Seattle Center
08:00PM 45.2625 -121.0672 339° North 496 571 43,000  Level Seattle Center
08:01PM 45.3911 -121.1386 339° North 495 570 43,000  Level Seattle Center
08:02PM 45.5203 -121.2103 339° North 496 571 43,000  Level Seattle Center
08:03PM 45.6472 -121.2794 339° North 491 565 43,000  Level Seattle Center
08:04PM 45.7769 -121.3394 342° North 491 565 43,000  Level Seattle Center
08:05PM 45.9092 -121.3950 344° North 493 567 43,000  Level Seattle Center
08:06PM 46.0411 -121.4508 344° North 495 570 43,000  Level Seattle Center
08:07PM 46.1733 -121.5058 344° North 494 568 43,000  Level Seattle Center
08:08PM 46.3028 -121.5628 343° North 489 563 43,000  Level Seattle Center
08:09PM 46.4383 -121.6200 344° North 497 572 43,000  Level Seattle Center
08:10PM 46.5681 -121.6750 344° North 493 567 43,000  Level Seattle Center
08:11PM 46.6981 -121.7322 343° North 493 567 43,000  Level Seattle Center
08:12PM 46.8539 -121.7994 344° North 492 566 43,000  Level Seattle Center
08:13PM 46.9836 -121.8561 343° North 493 567 43,000  Level Seattle Center
08:14PM 47.1128 -121.9167 342° North 492 566 43,000  Level Seattle Center
08:15PM 47.2425 -121.9739 343° North 494 568 43,000 -1,020 Level Seattle Center
08:16PM 47.3742 -122.0308 344° North 500 575 41,000 -2,460 Descending Seattle Center
08:17PM 47.5047 -122.0897 343° North 498 573 38,100 -2,880 Descending Seattle Center
08:18PM 47.6353 -122.1458 344° North 501 577 35,200 -3,120 Descending Seattle Center
08:19PM 47.7914 -122.2183 343° North 507 583 31,800 -3,120 Descending Seattle Center
08:21PM 48.0000 -122.3000 345° North 500 575 27,100 -3,000 Descending Vancouver Center
08:22PM 48.1333 -122.3167 355° North 500 575 24,100 -2,880 Descending Vancouver Center
08:23PM 48.2667 -122.3667 346° North 470 541 21,400 -2,580 Descending Vancouver Center
08:24PM 48.3667 -122.4167 342° North 440 506 19,000 -2,520 Descending Vancouver Center
08:25PM 48.5000 -122.4333 355° North 420 483 16,400 -2,460 Descending Vancouver Center
08:26PM 48.6000 -122.4667 348° North 410 472 14,100 -2,280 Descending Vancouver Center
08:26PM 48.6703 -122.4967 344° North 409 471 13,000 -2,040 Descending Seattle Center
08:27PM 48.7000 -122.5167 336° Northwest 380 437 12,100 -720 Descending Vancouver Center
08:28PM 48.7667 -122.6167 315° West 340 391 12,000 -300 Descending Vancouver Center
08:29PM 48.8333 -122.7333 311° West 340 391 11,500 -960 Descending Vancouver Center
08:30PM 48.8833 -122.8333 307° West 340 391 10,100 -720 Descending Vancouver Center
08:31PM 48.9500 -122.9333 315° West 330 380 10,100 -60 Level Vancouver Center
08:32PM 49.0000 -123.0333 307° West 320 368 10,000 -600 Descending Vancouver Center
08:33PM 49.0500 -123.1333 307° West 310 357 8,900 -1,380 Descending Vancouver Center
08:34PM 49.0833 -123.2667 291° West 280 322 7,300 -1,500 Descending Vancouver Center
08:35PM 49.1000 -123.3667 284° West 270 311 5,900 -1,440 Descending Vancouver Center
08:36PM 49.1333 -123.4667 297° West 250 288 4,500 -1,500 Descending Vancouver Center
08:37PM 49.1833 -123.4167 33° Northeast 240 276 2,900 -1,320 Descending Vancouver Center
08:38PM 49.1833 -123.3167 90° East 230 265 1,900 -1,080 Descending Vancouver Center
08:39PM 49.1667 -123.2333 107° East 170 196 800 -1,140 Descending Vancouver Center